Time;durP1;ratioP1;P1;durP2;ratioP2;P2;SDS_P1;SDS_P2;PMS_P1;PMS_P2;Temp;Humidity;BMP_temperature;BMP_pressure;BME280_temperature;BME280_humidity;BME280_pressure;Samples;Min_cycle;Max_cycle;Signal;HPM_P1;HPM_P2
2022/08/02 00:01:09;;;;;;;7.38;2.80;;;;;;;19.10;100.00;99085.50;5174509;27;20061;-49
2022/08/02 00:03:35;;;;;;;6.10;3.63;;;;;;;19.10;100.00;99088.25;5174538;27;20053;-52
2022/08/02 00:06:01;;;;;;;6.38;3.00;;;;;;;19.11;100.00;99105.72;5174248;27;20116;-50
2022/08/02 00:08:27;;;;;;;8.38;3.00;;;;;;;19.15;100.00;99100.88;5174263;27;20046;-53
2022/08/02 00:10:54;;;;;;;6.43;2.95;;;;;;;19.18;100.00;99091.69;5174242;27;20054;-51
2022/08/02 00:13:20;;;;;;;8.77;3.22;;;;;;;19.13;100.00;99086.63;5174332;27;20516;-50
2022/08/02 00:15:47;;;;;;;3.38;2.80;;;;;;;19.12;100.00;99088.59;5174103;27;20058;-53
2022/08/02 00:18:13;;;;;;;6.53;2.70;;;;;;;19.07;100.00;99085.56;5174025;27;20054;-52
2022/08/02 00:20:39;;;;;;;5.43;3.38;;;;;;;18.87;100.00;99079.94;5173919;27;20046;-52
2022/08/02 00:23:05;;;;;;;5.50;3.03;;;;;;;19.05;100.00;99072.06;5173979;27;20046;-52
2022/08/02 00:25:32;;;;;;;8.55;2.88;;;;;;;18.98;100.00;99064.66;5173914;27;20248;-53
2022/08/02 00:27:58;;;;;;;9.27;3.50;;;;;;;19.03;100.00;99071.72;5174047;27;20058;-51
2022/08/02 00:30:25;;;;;;;8.73;3.53;;;;;;;19.03;100.00;99078.06;5174000;27;20046;-52
2022/08/02 00:32:51;;;;;;;9.15;3.72;;;;;;;18.95;100.00;99065.50;5174063;27;20046;-49
2022/08/02 00:35:17;;;;;;;7.03;3.00;;;;;;;18.80;100.00;99053.09;5174266;27;20133;-49
2022/08/02 00:37:44;;;;;;;6.53;4.22;;;;;;;18.99;100.00;99057.91;5174031;27;20054;-49
2022/08/02 00:40:11;;;;;;;7.20;3.50;;;;;;;18.95;100.00;99059.16;5174017;27;20050;-50
2022/08/02 00:42:37;;;;;;;11.85;4.40;;;;;;;18.79;100.00;99057.03;5173973;27;20068;-49
2022/08/02 00:45:04;;;;;;;8.32;3.15;;;;;;;19.01;100.00;99066.56;5173982;27;20050;-51
2022/08/02 00:47:31;;;;;;;10.15;3.35;;;;;;;18.85;100.00;99071.25;5173798;27;20497;-53
2022/08/02 00:49:57;;;;;;;7.50;4.85;;;;;;;18.94;100.00;99065.94;5173643;27;20042;-52
2022/08/02 00:52:24;;;;;;;6.13;5.20;;;;;;;18.73;100.00;99061.53;5173297;27;20090;-53
2022/08/02 00:54:50;;;;;;;11.02;5.07;;;;;;;18.69;100.00;99058.75;5173740;27;20070;-52
2022/08/02 00:57:16;;;;;;;9.00;3.97;;;;;;;18.81;100.00;99049.88;5173783;27;20129;-51
2022/08/02 00:59:43;;;;;;;13.02;5.90;;;;;;;18.79;100.00;99057.84;5173744;27;20129;-48
2022/08/02 01:02:09;;;;;;;9.20;4.15;;;;;;;18.77;100.00;99048.38;5173696;27;20050;-49
2022/08/02 01:04:36;;;;;;;13.85;4.20;;;;;;;18.70;100.00;99043.69;5173405;27;20098;-49
2022/08/02 01:07:04;;;;;;;14.13;5.97;;;;;;;18.65;100.00;99037.81;5173714;27;20484;-50
2022/08/02 01:09:30;;;;;;;8.85;4.40;;;;;;;18.55;100.00;99034.03;5173548;27;20129;-49
2022/08/02 01:11:56;;;;;;;6.57;4.55;;;;;;;18.62;100.00;99022.78;5173328;27;20050;-48
2022/08/02 01:14:24;;;;;;;7.45;4.43;;;;;;;18.62;100.00;99033.91;5173275;27;20073;-53
2022/08/02 01:16:56;;;;;;;9.95;4.28;;;;;;;18.58;100.00;99039.50;5173221;27;20046;-49
2022/08/02 01:19:34;;;;;;;11.52;4.75;;;;;;;18.52;100.00;99034.88;5172332;27;20166;-54
2022/08/02 01:22:22;;;;;;;7.78;4.53;;;;;;;18.47;100.00;99047.25;5173311;27;20134;-49
2022/08/02 01:25:14;;;;;;;8.93;6.07;;;;;;;18.48;100.00;99036.91;5173570;27;20442;-52
2022/08/02 01:27:50;;;;;;;13.32;4.05;;;;;;;18.17;100.00;99016.81;5173206;27;20247;-52
2022/08/02 01:30:18;;;;;;;9.73;6.03;;;;;;;18.36;100.00;99013.34;5173065;27;20057;-52
2022/08/02 01:32:52;;;;;;;11.70;6.80;;;;;;;18.25;100.00;99009.91;5172824;27;20106;-48
2022/08/02 01:35:26;;;;;;;11.60;6.45;;;;;;;18.49;100.00;99008.75;5173062;27;20428;-49
2022/08/02 01:37:55;;;;;;;;;;;;;;;18.45;100.00;99018.31;5173228;27;20425;-49
2022/08/02 01:40:27;;;;;;;10.23;4.43;;;;;;;18.56;100.00;99028.06;5172774;27;19927;-49
2022/08/02 01:42:54;;;;;;;8.82;5.28;;;;;;;18.45;100.00;99029.44;5172783;27;20133;-50
2022/08/02 01:45:26;;;;;;;6.82;5.30;;;;;;;18.45;100.00;99032.22;5172644;27;20090;-50
2022/08/02 01:47:54;;;;;;;10.95;4.72;;;;;;;18.61;100.00;99035.13;5172687;27;20046;-51
2022/08/02 01:50:25;;;;;;;13.90;7.30;;;;;;;18.37;100.00;99047.41;5172270;27;20046;-50
2022/08/02 01:52:56;;;;;;;11.95;6.25;;;;;;;18.40;100.00;99043.81;5172873;27;20580;-49
2022/08/02 01:55:25;;;;;;;5.95;3.97;;;;;;;18.38;100.00;99024.78;5172559;27;20050;-50
2022/08/02 01:57:54;;;;;;;7.45;6.43;;;;;;;18.52;100.00;99034.88;5172649;27;20046;-49
2022/08/02 02:00:23;;;;;;;10.85;4.88;;;;;;;18.55;100.00;99037.56;5172367;27;20143;-48
2022/08/02 02:02:53;;;;;;;12.55;6.47;;;;;;;18.61;100.00;99035.13;5172324;27;20042;-50
2022/08/02 02:05:22;;;;;;;8.85;5.93;;;;;;;18.61;100.00;99051.00;5172479;27;20046;-53
2022/08/02 02:07:50;;;;;;;10.38;6.72;;;;;;;18.47;100.00;99047.25;5172228;27;20050;-49
2022/08/02 02:10:20;;;;;;;9.63;6.13;;;;;;;18.46;100.00;99044.88;5172177;27;20050;-50
2022/08/02 02:12:48;;;;;;;8.18;4.43;;;;;;;18.56;100.00;99049.50;5172182;27;20049;-49
2022/08/02 02:15:15;;;;;;;6.85;6.25;;;;;;;18.44;100.00;99048.06;5172333;27;20050;-49
2022/08/02 02:17:45;;;;;;;5.85;4.38;;;;;;;18.57;100.00;99048.28;5172063;27;20073;-48
2022/08/02 02:20:15;;;;;;;8.60;5.10;;;;;;;18.65;100.00;99051.72;5172290;27;20141;-49
2022/08/02 02:22:42;;;;;;;8.85;6.35;;;;;;;18.62;100.00;99064.44;5172474;27;20129;-50
2022/08/02 02:25:09;;;;;;;8.35;5.97;;;;;;;18.66;100.00;99073.50;5172224;27;20129;-52
2022/08/02 02:27:38;;;;;;;6.22;4.32;;;;;;;18.73;100.00;99080.97;5172340;27;20102;-49
2022/08/02 02:30:06;;;;;;;16.73;4.93;;;;;;;18.67;100.00;99096.50;5172025;27;20052;-53
2022/08/02 02:32:34;;;;;;;8.43;5.55;;;;;;;18.58;100.00;99100.59;5175661;27;20054;-51
2022/08/02 02:35:03;;;;;;;9.00;6.00;;;;;;;18.45;100.00;99085.72;5175654;27;20424;-49
2022/08/02 02:37:31;;;;;;;6.63;4.65;;;;;;;18.41;100.00;99073.13;5175893;27;20553;-52
2022/08/02 02:39:58;;;;;;;7.38;6.63;;;;;;;18.61;100.00;99075.97;5175715;27;20121;-51
2022/08/02 02:42:29;;;;;;;7.72;4.72;;;;;;;18.34;100.00;99085.91;5175640;27;20054;-50
2022/08/02 02:44:58;;;;;;;11.32;4.70;;;;;;;18.39;100.00;99059.66;5175454;27;20053;-53
2022/08/02 02:47:27;;;;;;;10.68;6.78;;;;;;;18.47;100.00;99071.44;5175758;27;20050;-48
2022/08/02 02:49:56;;;;;;;9.15;5.63;;;;;;;18.40;100.00;99047.34;5175734;27;20053;-52
2022/08/02 02:52:24;;;;;;;7.60;4.15;;;;;;;18.16;100.00;99048.50;5175829;27;20588;-51
2022/08/02 02:54:52;;;;;;;9.23;4.68;;;;;;;18.13;100.00;99044.59;5175819;27;20133;-48
2022/08/02 02:57:20;;;;;;;7.47;5.70;;;;;;;18.22;100.00;99047.63;5175348;27;20050;-49
2022/08/02 02:59:47;;;;;;;11.85;4.90;;;;;;;18.29;100.00;99041.97;5175599;27;20513;-49
2022/08/02 03:02:13;;;;;;;8.85;4.57;;;;;;;18.35;100.00;99037.50;5175243;27;20056;-49
2022/08/02 03:04:43;;;;;;;9.48;4.35;;;;;;;18.55;100.00;99045.13;5175518;27;20057;-49
2022/08/02 03:07:09;;;;;;;7.53;6.20;;;;;;;18.50;100.00;99062.28;5175295;27;20049;-49
2022/08/02 03:09:36;;;;;;;7.80;5.80;;;;;;;18.52;100.00;99074.50;5175139;27;20053;-49
2022/08/02 03:12:04;;;;;;;6.38;4.60;;;;;;;18.52;100.00;99063.41;5175053;27;20050;-49
2022/08/02 03:14:30;;;;;;;9.10;4.47;;;;;;;18.69;100.00;99072.66;5175324;27;20042;-49
2022/08/02 03:16:56;;;;;;;16.70;5.38;;;;;;;18.48;100.00;99086.88;5175322;27;20051;-49
2022/08/02 03:19:23;;;;;;;8.55;6.57;;;;;;;18.47;100.00;99086.09;5175160;27;20058;-53
2022/08/02 03:21:50;;;;;;;6.90;5.82;;;;;;;18.36;100.00;99088.25;5175297;27;20054;-49
2022/08/02 03:24:16;;;;;;;7.30;6.60;;;;;;;18.27;100.00;99071.34;5174889;27;20099;-48
2022/08/02 03:26:43;;;;;;;8.00;6.25;;;;;;;18.16;100.00;99070.69;5175061;27;20137;-51
2022/08/02 03:29:09;;;;;;;7.93;6.30;;;;;;;18.16;100.00;99054.06;5174752;27;20042;-51
2022/08/02 03:31:39;;;;;;;4.85;4.35;;;;;;;18.40;100.00;99060.44;5174862;27;20429;-49
2022/08/02 03:34:05;;;;;;;7.13;6.53;;;;;;;18.19;100.00;99064.31;5174677;27;20473;-53
2022/08/02 03:36:34;;;;;;;13.00;6.35;;;;;;;18.23;100.00;99067.84;5175099;27;20054;-49
2022/08/02 03:39:01;;;;;;;8.10;6.55;;;;;;;18.11;100.00;99058.09;5174713;27;20042;-50
2022/08/02 03:41:29;;;;;;;7.85;4.63;;;;;;;18.22;100.00;99052.38;5174104;27;20054;-49
2022/08/02 03:43:57;;;;;;;10.82;4.78;;;;;;;18.22;100.00;99061.50;5174609;27;20046;-50
2022/08/02 03:46:25;;;;;;;11.57;5.18;;;;;;;18.48;100.00;99064.69;5174539;27;20137;-48
2022/08/02 03:48:52;;;;;;;9.20;7.50;;;;;;;18.35;100.00;99064.47;5174971;27;20046;-49
2022/08/02 03:51:19;;;;;;;7.88;4.72;;;;;;;18.22;100.00;99057.94;5174428;27;20050;-53
2022/08/02 03:53:46;;;;;;;8.20;6.25;;;;;;;18.57;100.00;99062.16;5174649;27;20145;-49
2022/08/02 03:56:13;;;;;;;8.38;4.57;;;;;;;18.37;100.00;99089.03;5174355;27;20512;-49
2022/08/02 03:58:40;;;;;;;6.10;5.55;;;;;;;18.29;100.00;99086.38;5174527;27;20046;-52
2022/08/02 04:01:07;;;;;;;6.70;4.53;;;;;;;18.50;100.00;99081.72;5174354;27;20064;-50
2022/08/02 04:03:33;;;;;;;7.10;6.40;;;;;;;18.33;100.00;99083.56;5174259;27;20054;-52
2022/08/02 04:06:00;;;;;;;7.28;6.30;;;;;;;18.42;100.00;99094.09;5174532;27;20050;-49
2022/08/02 04:08:26;;;;;;;8.25;6.63;;;;;;;18.40;100.00;99091.75;5174223;27;20106;-49
2022/08/02 04:13:37;;;;;;;9.73;5.25;;;;;;;18.23;100.00;99090.03;5174128;27;20087;-49
2022/08/02 04:16:10;;;;;;;12.02;4.43;;;;;;;18.62;100.00;99102.53;5174518;27;20053;-51
2022/08/02 04:18:42;;;;;;;8.13;5.68;;;;;;;18.30;100.00;99106.59;5173917;27;20050;-50
2022/08/02 04:21:14;;;;;;;6.10;4.35;;;;;;;18.34;100.00;99091.44;5174183;27;20527;-49
2022/08/02 04:23:43;;;;;;;7.90;4.82;;;;;;;18.54;100.00;99099.88;5174067;27;20110;-50
2022/08/02 04:26:10;;;;;;;8.52;4.43;;;;;;;18.76;100.00;99118.97;5174379;27;20443;-49
2022/08/02 04:28:38;;;;;;;8.02;6.05;;;;;;;18.75;100.00;99134.88;5174290;27;20042;-50
2022/08/02 04:31:05;;;;;;;5.53;5.10;;;;;;;18.61;100.00;99143.38;5174201;27;20110;-49
2022/08/02 04:33:33;;;;;;;4.85;4.28;;;;;;;18.59;100.00;99162.44;5173988;27;20615;-51
2022/08/02 04:36:00;;;;;;;11.77;5.15;;;;;;;18.53;100.00;99148.28;5173578;27;20133;-49
2022/08/02 04:38:26;;;;;;;6.05;4.68;;;;;;;18.73;100.00;99153.97;5173917;27;20050;-49
2022/08/02 04:40:54;;;;;;;9.32;6.35;;;;;;;18.71;100.00;99156.31;5173966;27;20156;-55
2022/08/02 04:43:20;;;;;;;5.03;4.25;;;;;;;18.74;100.00;99161.06;5174214;27;20077;-50
2022/08/02 04:45:48;;;;;;;6.70;6.10;;;;;;;18.76;100.00;99155.91;5173734;27;20082;-49
2022/08/02 04:48:15;;;;;;;4.55;3.95;;;;;;;18.58;100.00;99172.00;5173789;27;20050;-50
2022/08/02 04:50:42;;;;;;;8.60;5.57;;;;;;;18.61;100.00;99171.16;5173904;27;20046;-49
2022/08/02 04:53:08;;;;;;;5.88;4.88;;;;;;;18.54;100.00;99174.81;5172912;27;20053;-50
2022/08/02 04:55:34;;;;;;;6.68;5.13;;;;;;;18.76;100.00;99193.97;5173328;27;20042;-53
2022/08/02 04:58:00;;;;;;;5.55;3.47;;;;;;;18.60;100.00;99191.03;5173579;27;20447;-49
2022/08/02 05:00:28;;;;;;;4.75;4.45;;;;;;;18.77;100.00;99207.44;5173775;27;20062;-51
2022/08/02 05:02:55;;;;;;;4.63;3.80;;;;;;;18.75;100.00;99228.50;5173392;27;20053;-53
2022/08/02 05:05:22;;;;;;;6.00;5.43;;;;;;;18.88;100.00;99226.72;5173899;27;20162;-50
2022/08/02 05:07:49;;;;;;;5.15;4.45;;;;;;;18.88;100.00;99246.16;5173378;27;20047;-52
2022/08/02 05:10:15;;;;;;;5.15;3.25;;;;;;;18.67;100.00;99263.13;5173636;27;20560;-53
2022/08/02 05:12:42;;;;;;;4.45;3.80;;;;;;;18.57;100.00;99225.97;5173191;27;20054;-51
2022/08/02 05:15:11;;;;;;;5.28;3.55;;;;;;;18.73;100.00;99236.47;5173405;27;20057;-50
2022/08/02 05:17:37;;;;;;;4.93;4.50;;;;;;;18.69;100.00;99257.91;5173166;27;20495;-49
2022/08/02 05:20:05;;;;;;;7.70;4.50;;;;;;;18.79;100.00;99248.66;5173236;27;20050;-53
2022/08/02 05:22:31;;;;;;;5.15;3.40;;;;;;;18.93;100.00;99278.25;5173350;27;20490;-49
2022/08/02 05:24:58;;;;;;;5.38;3.53;;;;;;;18.91;100.00;99298.13;5172966;27;20046;-49
2022/08/02 05:27:24;;;;;;;4.15;3.58;;;;;;;18.70;100.00;99296.38;5173363;27;20847;-49
2022/08/02 05:29:51;;;;;;;4.05;3.65;;;;;;;18.76;100.00;99291.97;5173030;27;20050;-49
2022/08/02 05:32:17;;;;;;;4.00;3.63;;;;;;;18.69;100.00;99274.56;5172620;27;20046;-49
2022/08/02 05:34:43;;;;;;;4.00;3.60;;;;;;;18.46;100.00;99295.50;5172428;27;20053;-53
2022/08/02 05:37:10;;;;;;;5.03;3.92;;;;;;;18.70;100.00;99276.94;5172958;27;20046;-51
2022/08/02 05:39:36;;;;;;;7.25;3.83;;;;;;;18.80;100.00;99311.38;5172590;27;20145;-48
2022/08/02 05:42:03;;;;;;;4.05;3.60;;;;;;;18.56;100.00;99307.69;5172936;27;20054;-50
2022/08/02 05:44:29;;;;;;;4.93;3.47;;;;;;;18.75;100.00;99304.28;5172658;27;20042;-51
2022/08/02 05:46:56;;;;;;;7.95;3.60;;;;;;;18.92;100.00;99313.56;5172508;27;20056;-51
2022/08/02 05:49:22;;;;;;;3.63;3.33;;;;;;;18.93;100.00;99329.06;5172407;27;20054;-49
2022/08/02 05:51:59;;;;;;;4.13;3.50;;;;;;;19.10;100.00;99349.47;5172339;27;20054;-48
2022/08/02 05:54:36;;;;;;;5.88;3.90;;;;;;;18.88;100.00;99342.59;5172605;27;20416;-49
2022/08/02 05:57:08;;;;;;;4.10;3.53;;;;;;;18.87;100.00;99352.16;5172405;27;20073;-50
2022/08/02 05:59:44;;;;;;;5.85;4.82;;;;;;;18.88;100.00;99337.06;5172417;27;20050;-50
2022/08/02 06:02:22;;;;;;;5.15;4.72;;;;;;;18.81;100.00;99349.03;5172168;27;20608;-49
2022/08/02 06:04:56;;;;;;;3.97;3.60;;;;;;;19.13;100.00;99334.72;5171869;27;20050;-50
2022/08/02 06:07:23;;;;;;;3.70;3.40;;;;;;;18.87;100.00;99349.38;5172323;27;20101;-52
2022/08/02 06:09:50;;;;;;;5.22;4.07;;;;;;;18.80;100.00;99342.69;5172105;27;20132;-49
2022/08/02 06:12:18;;;;;;;6.38;4.90;;;;;;;19.01;100.00;99349.97;5172231;27;20141;-52
2022/08/02 06:14:46;;;;;;;3.60;3.22;;;;;;;18.60;100.00;99350.06;5172055;27;20091;-51
2022/08/02 06:17:13;;;;;;;3.78;3.35;;;;;;;18.88;100.00;99360.06;5172141;27;20050;-49
2022/08/02 06:19:41;;;;;;;5.68;3.33;;;;;;;18.66;100.00;99370.63;5172037;27;20042;-53
2022/08/02 06:22:15;;;;;;;5.30;3.15;;;;;;;18.92;100.00;99383.00;5172232;27;20093;-52
2022/08/02 06:24:42;;;;;;;5.20;3.07;;;;;;;18.65;100.00;99387.69;5172053;27;20470;-50
2022/08/02 06:27:09;;;;;;;5.07;2.95;;;;;;;18.77;100.00;99371.31;5171925;27;20275;-49
2022/08/02 06:29:37;;;;;;;5.35;4.00;;;;;;;18.98;100.00;99372.25;5171937;27;20653;-50
2022/08/02 06:32:05;;;;;;;4.28;3.97;;;;;;;19.05;100.00;99394.38;5172092;27;20133;-50
2022/08/02 06:34:36;;;;;;;5.10;3.80;;;;;;;18.90;100.00;99391.00;5171961;27;20046;-49
2022/08/02 06:37:11;;;;;;;3.58;2.90;;;;;;;18.95;100.00;99389.72;5171835;27;20653;-47
2022/08/02 06:39:44;;;;;;;2.80;2.60;;;;;;;19.06;100.00;99398.75;5172100;27;20046;-50
2022/08/02 06:42:12;;;;;;;5.20;3.05;;;;;;;19.32;100.00;99402.75;5171851;27;20050;-49
2022/08/02 06:44:39;;;;;;;4.90;2.67;;;;;;;19.35;100.00;99426.91;5172070;27;20053;-50
2022/08/02 06:47:05;;;;;;;3.65;2.83;;;;;;;19.61;100.00;99430.16;5171638;27;20042;-48
2022/08/02 06:49:31;;;;;;;10.23;3.33;;;;;;;19.67;100.00;99437.63;5171888;27;20493;-50
2022/08/02 06:51:58;;;;;;;4.72;2.72;;;;;;;19.70;100.00;99439.56;5171551;27;20058;-48
2022/08/02 06:54:24;;;;;;;3.20;2.53;;;;;;;19.62;100.00;99431.72;5171527;27;20136;-52
2022/08/02 06:56:50;;;;;;;6.63;3.08;;;;;;;20.06;100.00;99427.91;5171904;27;20137;-52
2022/08/02 06:59:17;;;;;;;3.22;2.80;;;;;;;20.11;100.00;99424.63;5171700;27;20085;-50
2022/08/02 07:01:43;;;;;;;3.58;2.70;;;;;;;20.06;100.00;99425.13;5172098;27;20054;-51
2022/08/02 07:04:10;;;;;;;3.60;2.30;;;;;;;20.01;100.00;99424.78;5171652;27;20054;-52
2022/08/02 07:06:36;;;;;;;3.50;2.40;;;;;;;20.24;100.00;99391.41;5171918;27;20049;-50
2022/08/02 07:09:02;;;;;;;3.63;2.58;;;;;;;20.01;100.00;99388.63;5171361;27;20433;-53
2022/08/02 07:11:28;;;;;;;2.40;2.20;;;;;;;20.64;100.00;99386.69;5171911;27;20046;-52
2022/08/02 07:13:55;;;;;;;6.07;2.45;;;;;;;20.45;100.00;99354.00;5171287;27;20081;-49
2022/08/02 07:16:21;;;;;;;3.95;2.30;;;;;;;20.28;100.00;99361.50;5171866;27;20046;-52
2022/08/02 07:18:48;;;;;;;6.57;2.45;;;;;;;20.24;100.00;99360.00;5174908;27;20046;-52
2022/08/02 07:21:14;;;;;;;2.10;2.00;;;;;;;20.50;100.00;99336.81;5174704;27;20082;-50
2022/08/02 07:23:40;;;;;;;3.05;2.25;;;;;;;20.29;100.00;99342.78;5174775;27;20061;-52
2022/08/02 07:26:06;;;;;;;2.90;2.70;;;;;;;20.53;100.00;99338.78;5175004;27;20082;-52
2022/08/02 07:28:33;;;;;;;2.40;2.20;;;;;;;20.60;100.00;99316.34;5174876;27;20080;-51
2022/08/02 07:31:00;;;;;;;3.80;2.40;;;;;;;20.54;100.00;99209.44;5174820;27;20054;-51
2022/08/02 07:33:26;;;;;;;2.72;2.13;;;;;;;20.42;100.00;99210.84;5175273;27;20454;-52
2022/08/02 07:35:53;;;;;;;2.13;1.92;;;;;;;20.85;100.00;99203.56;5174895;27;20580;-53
2022/08/02 07:38:23;;;;;;;4.50;2.10;;;;;;;21.24;100.00;99140.53;5175201;27;20050;-52
2022/08/02 07:40:49;;;;;;;2.83;2.58;;;;;;;21.72;100.00;99047.56;5174756;27;20060;-52
2022/08/02 07:43:16;;;;;;;3.78;1.98;;;;;;;22.25;100.00;98897.19;5174683;27;20050;-50
2022/08/02 07:45:42;;;;;;;2.17;2.08;;;;;;;22.57;100.00;98688.59;5174480;27;20063;-51
2022/08/02 07:48:09;;;;;;;2.83;2.40;;;;;;;22.44;100.00;98528.72;5174602;27;20048;-51
2022/08/02 07:50:35;;;;;;;2.90;2.08;;;;;;;22.55;100.00;98398.53;5174733;27;20493;-52
2022/08/02 07:53:02;;;;;;;4.30;1.77;;;;;;;22.23;100.00;98404.72;5174532;27;20046;-52
2022/08/02 07:55:28;;;;;;;2.22;2.03;;;;;;;21.81;100.00;98551.03;5174771;27;20933;-50
2022/08/02 07:57:55;;;;;;;6.70;1.90;;;;;;;21.63;100.00;98555.75;5174565;27;20394;-53
2022/08/02 08:00:21;;;;;;;2.13;1.80;;;;;;;21.83;100.00;98628.72;5174804;27;20051;-52
2022/08/02 08:02:47;;;;;;;2.35;1.90;;;;;;;21.94;100.00;98587.22;5174281;27;20496;-53
2022/08/02 08:05:14;;;;;;;1.95;1.67;;;;;;;22.32;100.00;98477.31;5174686;27;20050;-50
2022/08/02 08:07:41;;;;;;;6.07;1.60;;;;;;;22.43;100.00;98430.19;5174443;27;20056;-52
2022/08/02 08:10:09;;;;;;;4.72;1.77;;;;;;;22.86;100.00;98313.78;5174517;27;20052;-50
2022/08/02 08:12:35;;;;;;;3.85;1.80;;;;;;;22.97;100.00;98114.88;5174042;27;20050;-49
2022/08/02 08:15:01;;;;;;;2.30;1.33;;;;;;;22.79;100.00;98090.56;5174346;27;20042;-51
2022/08/02 08:17:28;;;;;;;2.38;1.30;;;;;;;23.16;100.00;98147.06;5174154;27;20102;-53
2022/08/02 08:19:54;;;;;;;1.73;1.50;;;;;;;23.33;100.00;98119.47;5174057;27;20458;-51
2022/08/02 08:22:20;;;;;;;2.22;1.73;;;;;;;23.48;100.00;98081.13;5174044;27;20109;-50
2022/08/02 08:24:47;;;;;;;2.00;1.42;;;;;;;23.16;100.00;98087.59;5174156;27;20053;-51
2022/08/02 08:27:14;;;;;;;3.65;1.75;;;;;;;23.01;100.00;98133.00;5174017;27;20054;-52
2022/08/02 08:29:41;;;;;;;3.13;1.60;;;;;;;22.45;100.00;98192.34;5173862;27;20081;-52
2022/08/02 08:32:07;;;;;;;4.07;1.60;;;;;;;22.49;100.00;98227.25;5173820;27;20050;-52
2022/08/02 08:34:34;;;;;;;3.80;1.70;;;;;;;22.43;100.00;98211.59;5173855;27;20050;-53
2022/08/02 08:37:01;;;;;;;2.10;1.50;;;;;;;22.18;100.00;98305.59;5173866;27;20042;-51
2022/08/02 08:39:28;;;;;;;1.60;1.50;;;;;;;22.24;100.00;98392.31;5173509;27;20054;-52
2022/08/02 08:41:54;;;;;;;1.70;1.60;;;;;;;22.10;100.00;98429.94;5173774;27;20046;-51
2022/08/02 08:44:21;;;;;;;1.42;1.33;;;;;;;22.14;100.00;98474.44;5173523;27;20101;-52
2022/08/02 08:46:49;;;;;;;1.60;1.50;;;;;;;22.36;100.00;98394.19;5173540;27;20051;-55
2022/08/02 08:49:24;;;;;;;3.97;1.70;;;;;;;21.77;100.00;98502.19;5173712;27;20054;-49
2022/08/02 08:51:54;;;;;;;5.03;1.40;;;;;;;22.12;100.00;98421.09;5173164;27;20046;-53
2022/08/02 08:54:24;;;;;;;1.67;1.58;;;;;;;21.62;100.00;98390.38;5173622;27;20128;-53
2022/08/02 08:56:52;;;;;;;4.68;1.40;;;;;;;21.28;100.00;98508.34;5173224;27;20046;-52
2022/08/02 08:59:18;;;;;;;2.58;1.27;;;;;;;21.29;100.00;98574.03;5173348;27;20051;-53
2022/08/02 09:01:46;;;;;;;2.28;1.48;;;;;;;21.94;100.00;98539.78;5172950;27;20503;-53
2022/08/02 09:04:12;;;;;;;1.13;1.08;;;;;;;22.09;100.00;98334.25;5173520;27;20141;-50
2022/08/02 09:06:39;;;;;;;2.97;1.23;;;;;;;22.14;100.00;98285.41;5173173;27;20133;-53
2022/08/02 09:09:05;;;;;;;4.00;1.48;;;;;;;22.55;100.00;98189.03;5173135;27;20102;-51
2022/08/02 09:11:32;;;;;;;2.22;1.42;;;;;;;23.22;100.00;98183.53;5173096;27;20535;-51
2022/08/02 09:14:00;;;;;;;1.70;1.30;;;;;;;23.41;100.00;98114.28;5172808;27;20058;-53
2022/08/02 09:16:29;;;;;;;1.30;1.20;;;;;;;23.23;100.00;98051.66;5173109;27;20050;-50
2022/08/02 09:18:57;;;;;;;2.13;1.30;;;;;;;24.36;100.00;98048.84;5172900;27;20046;-54
2022/08/02 09:21:23;;;;;;;2.10;1.30;;;;;;;24.08;100.00;98031.59;5173322;27;20450;-52
2022/08/02 09:23:51;;;;;;;3.10;1.20;;;;;;;24.58;100.00;98034.41;5173010;27;20157;-52
2022/08/02 09:26:19;;;;;;;1.92;1.30;;;;;;;24.28;100.00;98035.72;5173077;27;20062;-51
2022/08/02 09:28:50;;;;;;;1.63;1.42;;;;;;;24.96;100.00;98021.44;5172761;27;20060;-51
2022/08/02 09:31:17;;;;;;;2.17;1.13;;;;;;;25.55;100.00;98042.78;5172915;27;20089;-51
2022/08/02 09:33:50;;;;;;;2.83;1.20;;;;;;;25.77;100.00;98048.63;5172759;27;20050;-53
2022/08/02 09:36:17;;;;;;;2.42;1.52;;;;;;;24.90;100.00;98031.81;5173048;27;20511;-52
2022/08/02 09:38:54;;;;;;;2.03;1.50;;;;;;;25.32;100.00;98033.34;5172922;27;20111;-53
2022/08/02 09:41:22;;;;;;;1.20;1.20;;;;;;;25.38;100.00;98041.84;5171865;27;20050;-53
2022/08/02 09:43:48;;;;;;;1.17;1.10;;;;;;;25.89;100.00;98060.78;5172550;27;20052;-53
2022/08/02 09:46:17;;;;;;;2.17;1.17;;;;;;;26.05;100.00;98054.53;5172646;27;20046;-53
2022/08/02 09:48:52;;;;;;;3.35;1.27;;;;;;;25.67;100.00;98038.06;5172767;27;20046;-52
2022/08/02 09:51:21;;;;;;;2.35;1.40;;;;;;;25.53;100.00;98026.47;5172434;27;20572;-52
2022/08/02 09:53:50;;;;;;;2.35;1.10;;;;;;;25.22;100.00;98043.94;5172927;27;20042;-50
2022/08/02 09:56:17;;;;;;;2.05;1.30;;;;;;;24.56;100.00;98039.00;5172501;27;20053;-52
2022/08/02 09:58:43;;;;;;;1.92;1.30;;;;;;;24.76;100.00;98030.59;5172391;27;20423;-50
2022/08/02 10:01:10;;;;;;;2.22;1.10;;;;;;;24.93;100.00;98028.03;5172191;27;20103;-51
2022/08/02 10:03:36;;;;;;;1.38;1.27;;;;;;;25.08;100.00;98039.16;5172364;27;20072;-52
2022/08/02 10:06:03;;;;;;;1.55;1.20;;;;;;;25.24;100.00;98030.22;5172360;27;20559;-53
2022/08/02 10:08:31;;;;;;;2.47;1.23;;;;;;;25.78;100.00;98040.97;5172166;27;20085;-54
2022/08/02 10:11:02;;;;;;;1.98;1.35;;;;;;;25.19;100.00;98030.13;5171937;27;20518;-51
2022/08/02 10:13:30;;;;;;;1.40;1.30;;;;;;;25.76;100.00;98055.53;5171869;27;20125;-51
2022/08/02 10:15:56;;;;;;;1.85;1.02;;;;;;;24.50;100.00;98040.94;5172109;27;20083;-50
2022/08/02 10:18:23;;;;;;;2.10;1.20;;;;;;;24.28;100.00;98036.50;5171448;27;20088;-53
2022/08/02 10:20:50;;;;;;;2.45;1.30;;;;;;;24.36;100.00;98036.88;5171893;27;20132;-51
2022/08/02 10:23:19;;;;;;;3.13;1.35;;;;;;;24.24;100.00;98052.72;5171579;27;20054;-51
2022/08/02 10:25:48;;;;;;;3.63;1.30;;;;;;;23.75;100.00;98070.97;5171796;27;20407;-49
2022/08/02 10:28:15;;;;;;;2.42;1.10;;;;;;;24.19;100.00;98078.59;5171739;27;20141;-50
2022/08/02 10:30:44;;;;;;;1.50;1.20;;;;;;;23.99;100.00;98065.28;5171659;27;20050;-53
2022/08/02 10:33:12;;;;;;;2.30;1.50;;;;;;;24.61;100.00;98044.66;5172235;27;20424;-50
2022/08/02 10:35:40;;;;;;;1.30;1.17;;;;;;;24.83;100.00;98047.00;5171851;27;20138;-50
2022/08/02 10:38:09;;;;;;;1.48;1.30;;;;;;;25.02;100.00;98029.91;5171886;27;20497;-53
2022/08/02 10:40:47;;;;;;;1.67;1.35;;;;;;;24.67;100.00;98035.56;5171978;27;20050;-52
2022/08/02 10:43:40;;;;;;;2.70;1.35;;;;;;;24.26;100.00;98053.03;5172171;27;20517;-52
2022/08/02 10:46:31;;;;;;;1.60;1.50;;;;;;;24.32;100.00;98039.84;5171686;27;20129;-53
2022/08/02 10:49:06;;;;;;;3.50;1.20;;;;;;;24.85;100.00;98050.06;5171746;27;20046;-53
2022/08/02 10:52:04;;;;;;;3.35;1.30;;;;;;;24.60;100.00;98045.16;5172249;27;20058;-53
2022/08/02 10:54:33;;;;;;;4.50;1.88;;;;;;;24.96;100.00;98045.88;5175491;27;20122;-51
2022/08/02 10:57:01;;;;;;;1.85;1.33;;;;;;;24.75;100.00;98051.47;5175434;27;20398;-48
2022/08/02 10:59:28;;;;;;;3.58;1.58;;;;;;;24.52;100.00;98053.16;5175297;27;20099;-51
2022/08/02 11:02:00;;;;;;;2.72;1.60;;;;;;;24.77;100.00;98043.34;5175109;27;20137;-51
2022/08/02 11:04:29;;;;;;;2.05;0.90;;;;;;;25.10;100.00;98029.00;5175329;27;20509;-50
2022/08/02 11:07:10;;;;;;;1.27;1.20;;;;;;;25.43;100.00;98041.16;5175400;27;20560;-51
2022/08/02 11:09:37;;;;;;;2.47;1.40;;;;;;;25.20;100.00;98046.50;5174958;27;20108;-51
2022/08/02 11:12:06;;;;;;;1.00;1.00;;;;;;;25.69;100.00;98044.75;5174903;27;20057;-51
2022/08/02 11:14:34;;;;;;;2.33;1.10;;;;;;;25.25;100.00;98036.59;5174823;27;20046;-50
2022/08/02 11:17:12;;;;;;;1.10;0.95;;;;;;;24.97;100.00;98050.25;5175023;27;20050;-52
2022/08/02 11:20:16;;;;;;;2.88;1.10;;;;;;;24.95;100.00;98038.75;5175436;27;20046;-51
2022/08/02 11:22:43;;;;;;;;;;;;;;;25.15;100.00;98035.19;5175596;27;20110;-50
2022/08/02 11:25:32;;;;;;;3.55;1.20;;;;;;;24.73;100.00;98042.03;5174770;27;19922;-51
2022/08/02 11:28:07;;;;;;;1.70;1.30;;;;;;;24.33;100.00;98049.06;5175189;27;20053;-50
2022/08/02 11:30:33;;;;;;;1.63;1.20;;;;;;;23.57;100.00;98065.53;5174789;27;20075;-53
2022/08/02 11:33:00;;;;;;;3.40;1.23;;;;;;;24.12;100.00;98079.75;5174742;27;20050;-52